KLDM

Details ICAO KLDM
Name MASON CO
Region United States
Timezone America/Detroit (UTC-4.0)
Plans Departing 2
Arriving 6
Stats Elevation 645 ft / 197 m (AMSL)
Location 43.962748° -86.408653°
Runways 2
Magnetic Variation 5.296° W
Sunrise 2018-05-22 10:14:17 UTC / 2018-05-22 06:14:17 Local
Sunset 2018-05-23 01:13:13 UTC / 2018-05-22 21:13:13 Local
Advertisement - Login to hide

Runways

ID Width Length Bearing (true) Bearing (mag) Surface Threshold Offset Overrun Length
07 75 ft / 23 m 4,990 ft / 1,521 m 70.94° 76.24° Asphalt 0 ft / 0 m 250 ft / 76 m
18 75 ft / 23 m 3,505 ft / 1,068 m 181.65° 186.95° Asphalt 0 ft / 0 m 0 ft / 0 m
25 75 ft / 23 m 4,990 ft / 1,521 m 250.95° 256.25° Asphalt 0 ft / 0 m 0 ft / 0 m
36 75 ft / 23 m 3,505 ft / 1,068 m 1.65° 6.95° Asphalt 0 ft / 0 m 800 ft / 244 m

Map

Weather


0- 5 10 15 20 25 30 35+ Temperature / ° C

Clouds and Precipitation
Forecast for 2018-05-22 12:00 UTC. Updated an hour ago

Ground ~20,000 ft ~40,000 ft Winds

METAR

KLDM 221035Z AUTO 00000KT 2 1/2SM BR OVC003 10/10 A2999 RMK AO2 T01020102

TAF

Not found

Frequencies

Recorded 119.92 MHz AWOS 3
Unicom 123.00 MHz CTAF/UNICOM
Warning: Do not use this data for real-world aviation or navigation. No guarantee of current accuracy is given.